Time;durP1;ratioP1;P1;durP2;ratioP2;P2;SDS_P1;SDS_P2;PMS_P1;PMS_P2;Temp;Humidity;BMP_temperature;BMP_pressure;BME280_temperature;BME280_humidity;BME280_pressure;Samples;Min_cycle;Max_cycle;Signal;HPM_P1;HPM_P2
2024/01/30 00:00:36;;;;;;;11.02;9.13;;;;;;;;;;4939231;29;20067;-59
2024/01/30 00:03:02;;;;;;;9.93;7.70;;;;;;;;;;4937651;29;20027;-60
2024/01/30 00:05:27;;;;;;;9.90;7.20;;;;;;;;;;4930088;29;20156;-60
2024/01/30 00:07:53;;;;;;;8.93;8.02;;;;;;;;;;4934985;29;20028;-59
2024/01/30 00:10:18;;;;;;;11.73;8.10;;;;;;;;;;4936769;29;20075;-60
2024/01/30 00:12:43;;;;;;;9.48;7.55;;;;;;;;;;4927041;29;20027;-60
2024/01/30 00:15:09;;;;;;;12.25;7.95;;;;;;;;;;4936025;29;20035;-58
2024/01/30 00:17:36;;;;;;;9.43;7.30;;;;;;;;;;4932542;29;20046;-59
2024/01/30 00:20:05;;;;;;;15.43;7.22;;;;;;;;;;4939895;29;20031;-60
2024/01/30 00:22:31;;;;;;;7.75;6.97;;;;;;;;;;4941008;29;20092;-59
2024/01/30 00:24:56;;;;;;;9.00;7.15;;;;;;;;;;4938539;29;20553;-58
2024/01/30 00:27:21;;;;;;;8.77;7.28;;;;;;;;;;4938058;29;20368;-60
2024/01/30 00:29:47;;;;;;;10.75;7.15;;;;;;;;;;4938607;29;20031;-59
2024/01/30 00:32:12;;;;;;;10.43;7.63;;;;;;;;;;4939504;29;20060;-59
2024/01/30 00:34:37;;;;;;;10.55;7.18;;;;;;;;;;4933239;29;20036;-60
2024/01/30 00:37:03;;;;;;;9.63;7.90;;;;;;;;;;4934947;29;20094;-59
2024/01/30 00:39:28;;;;;;;9.38;7.55;;;;;;;;;;4940522;29;20039;-59
2024/01/30 00:41:54;;;;;;;12.65;7.80;;;;;;;;;;4938101;29;20044;-59
2024/01/30 00:44:19;;;;;;;8.77;7.03;;;;;;;;;;4933184;29;20051;-60
2024/01/30 00:46:45;;;;;;;8.43;6.93;;;;;;;;;;4935989;29;20133;-60
2024/01/30 00:49:11;;;;;;;9.00;7.95;;;;;;;;;;4933526;29;20039;-60
2024/01/30 00:51:36;;;;;;;10.45;7.28;;;;;;;;;;4934295;29;20028;-59
2024/01/30 00:54:02;;;;;;;10.38;9.18;;;;;;;;;;4938838;29;20039;-60
2024/01/30 00:56:28;;;;;;;11.13;7.15;;;;;;;;;;4934745;29;20020;-57
2024/01/30 00:58:54;;;;;;;8.32;5.82;;;;;;;;;;4937853;29;20115;-57
2024/01/30 01:01:19;;;;;;;11.70;8.38;;;;;;;;;;4941452;29;20051;-55
2024/01/30 01:03:44;;;;;;;10.38;7.18;;;;;;;;;;4937316;29;20035;-60
2024/01/30 01:06:10;;;;;;;8.75;7.63;;;;;;;;;;4937424;29;20079;-60
2024/01/30 01:08:36;;;;;;;7.38;6.55;;;;;;;;;;4939233;29;20032;-59
2024/01/30 01:11:02;;;;;;;9.63;6.70;;;;;;;;;;4938701;29;20036;-59
2024/01/30 01:13:27;;;;;;;8.15;6.38;;;;;;;;;;4937029;29;20118;-58
2024/01/30 01:15:53;;;;;;;6.43;5.43;;;;;;;;;;4937353;29;20499;-57
2024/01/30 01:18:18;;;;;;;10.18;6.03;;;;;;;;;;4928400;29;20047;-59
2024/01/30 01:20:43;;;;;;;9.40;7.68;;;;;;;;;;4937763;29;20159;-60
2024/01/30 01:23:09;;;;;;;10.55;6.90;;;;;;;;;;4938445;29;20057;-59
2024/01/30 01:25:34;;;;;;;9.77;7.72;;;;;;;;;;4935748;29;20071;-59
2024/01/30 01:28:01;;;;;;;8.63;6.43;;;;;;;;;;4937233;29;20027;-59
2024/01/30 01:30:26;;;;;;;9.40;6.55;;;;;;;;;;4939688;29;20042;-59
2024/01/30 01:32:54;;;;;;;9.43;7.22;;;;;;;;;;4935181;29;20032;-60
2024/01/30 01:35:22;;;;;;;6.93;5.80;;;;;;;;;;4935863;29;20040;-59
2024/01/30 01:37:54;;;;;;;8.63;6.53;;;;;;;;;;4938504;29;20110;-60
2024/01/30 01:40:23;;;;;;;7.72;6.65;;;;;;;;;;4937125;29;20083;-59
2024/01/30 01:42:52;;;;;;;8.48;6.38;;;;;;;;;;4935366;29;20027;-59
2024/01/30 01:45:19;;;;;;;8.57;6.13;;;;;;;;;;4929463;29;20091;-59
2024/01/30 01:47:47;;;;;;;6.53;5.85;;;;;;;;;;4938464;29;20023;-57
2024/01/30 01:50:13;;;;;;;9.20;6.60;;;;;;;;;;4933177;29;20044;-60
2024/01/30 01:52:41;;;;;;;8.00;7.20;;;;;;;;;;4932422;29;20044;-58
2024/01/30 01:55:07;;;;;;;9.07;6.95;;;;;;;;;;4934707;29;20043;-59
2024/01/30 01:57:33;;;;;;;10.07;6.75;;;;;;;;;;4938687;29;20141;-59
2024/01/30 02:00:01;;;;;;;10.57;8.55;;;;;;;;;;4931906;29;20534;-59
2024/01/30 02:02:30;;;;;;;8.52;7.45;;;;;;;;;;4937428;29;20359;-58
2024/01/30 02:04:57;;;;;;;9.70;8.07;;;;;;;;;;4934174;29;20050;-60
2024/01/30 02:07:22;;;;;;;9.32;8.18;;;;;;;;;;4936328;29;20098;-57
2024/01/30 02:09:47;;;;;;;8.25;7.25;;;;;;;;;;4930692;29;20043;-58
2024/01/30 02:12:13;;;;;;;9.40;8.00;;;;;;;;;;4940142;29;20387;-58
2024/01/30 02:14:48;;;;;;;8.70;7.03;;;;;;;;;;4932822;29;20486;-58
2024/01/30 02:17:15;;;;;;;10.13;7.82;;;;;;;;;;4937946;29;20131;-59
2024/01/30 02:19:40;;;;;;;10.70;8.35;;;;;;;;;;4936557;29;20394;-59
2024/01/30 02:22:06;;;;;;;10.30;6.88;;;;;;;;;;4934491;29;20028;-57
2024/01/30 02:24:31;;;;;;;8.75;7.65;;;;;;;;;;4936231;29;20467;-60
2024/01/30 02:26:57;;;;;;;11.60;7.45;;;;;;;;;;4937260;29;20047;-59
2024/01/30 02:29:22;;;;;;;9.63;7.88;;;;;;;;;;4937029;29;20036;-60
2024/01/30 02:31:48;;;;;;;10.95;7.50;;;;;;;;;;4933858;29;20028;-59
2024/01/30 02:34:13;;;;;;;12.20;8.73;;;;;;;;;;4936617;29;20036;-60
2024/01/30 02:36:42;;;;;;;9.35;6.93;;;;;;;;;;4936361;29;20119;-60
2024/01/30 02:39:08;;;;;;;9.35;6.95;;;;;;;;;;4932281;29;20032;-58
2024/01/30 02:41:33;;;;;;;9.18;7.28;;;;;;;;;;4933294;29;20038;-59
2024/01/30 02:43:59;;;;;;;11.85;7.32;;;;;;;;;;4936532;29;20026;-60
2024/01/30 02:46:24;;;;;;;10.77;7.50;;;;;;;;;;4936847;29;20114;-60
2024/01/30 02:48:50;;;;;;;8.90;7.28;;;;;;;;;;4936401;29;20087;-59
2024/01/30 02:51:16;;;;;;;9.40;7.38;;;;;;;;;;4936819;29;20039;-59
2024/01/30 02:53:42;;;;;;;7.97;7.05;;;;;;;;;;4934692;29;20051;-59
2024/01/30 02:56:09;;;;;;;10.10;6.32;;;;;;;;;;4934856;29;20571;-59
2024/01/30 02:58:38;;;;;;;11.73;7.28;;;;;;;;;;4934729;29;20039;-59
2024/01/30 03:01:04;;;;;;;7.78;6.63;;;;;;;;;;4936068;29;20036;-60
2024/01/30 03:03:29;;;;;;;9.02;8.13;;;;;;;;;;4934197;29;20031;-59
2024/01/30 03:05:54;;;;;;;9.02;5.78;;;;;;;;;;4935608;29;20103;-60
2024/01/30 03:08:20;;;;;;;7.13;6.43;;;;;;;;;;4933943;29;20066;-59
2024/01/30 03:10:46;;;;;;;8.10;6.63;;;;;;;;;;4934441;29;20040;-60
2024/01/30 03:13:11;;;;;;;7.80;7.03;;;;;;;;;;4939019;29;20062;-59
2024/01/30 03:15:37;;;;;;;7.47;6.20;;;;;;;;;;4924721;29;20083;-60
2024/01/30 03:18:03;;;;;;;8.82;7.07;;;;;;;;;;4935332;29;20047;-59
2024/01/30 03:20:29;;;;;;;9.80;5.68;;;;;;;;;;4935770;29;20039;-59
2024/01/30 03:22:55;;;;;;;8.27;6.13;;;;;;;;;;4936735;29;20456;-60
2024/01/30 03:25:20;;;;;;;9.85;6.30;;;;;;;;;;4936277;29;20075;-59
2024/01/30 03:27:46;;;;;;;6.80;5.15;;;;;;;;;;4936189;29;20032;-60
2024/01/30 03:30:11;;;;;;;7.32;6.05;;;;;;;;;;4931650;29;20044;-59
2024/01/30 03:32:37;;;;;;;9.45;6.78;;;;;;;;;;4938831;29;20386;-58
2024/01/30 03:35:02;;;;;;;11.20;8.00;;;;;;;;;;4934433;29;20035;-58
2024/01/30 03:37:28;;;;;;;8.38;5.85;;;;;;;;;;4932825;29;20046;-59
2024/01/30 03:39:53;;;;;;;8.15;6.65;;;;;;;;;;4936023;29;20036;-59
2024/01/30 03:42:18;;;;;;;7.47;5.68;;;;;;;;;;4937213;29;20110;-59
2024/01/30 03:44:44;;;;;;;6.63;5.45;;;;;;;;;;4933846;29;20043;-59
2024/01/30 03:47:09;;;;;;;7.43;6.65;;;;;;;;;;4931882;29;20039;-59
2024/01/30 03:49:35;;;;;;;6.07;5.47;;;;;;;;;;4932620;29;20046;-59
2024/01/30 03:52:00;;;;;;;8.02;5.20;;;;;;;;;;4931065;29;20027;-59
2024/01/30 03:54:25;;;;;;;7.50;6.50;;;;;;;;;;4936481;29;20383;-60
2024/01/30 03:56:51;;;;;;;7.70;5.80;;;;;;;;;;4932634;29;20117;-60
2024/01/30 03:59:17;;;;;;;8.38;7.57;;;;;;;;;;4934999;29;20044;-59
2024/01/30 04:01:43;;;;;;;11.27;6.40;;;;;;;;;;4938036;29;20559;-59
2024/01/30 04:04:08;;;;;;;9.40;6.38;;;;;;;;;;4936872;29;20051;-59
2024/01/30 04:06:33;;;;;;;6.88;5.07;;;;;;;;;;4933858;29;20107;-60
2024/01/30 04:08:59;;;;;;;9.18;6.30;;;;;;;;;;4931137;29;20548;-59
2024/01/30 04:11:25;;;;;;;9.27;8.40;;;;;;;;;;4937042;29;20032;-58
2024/01/30 04:13:50;;;;;;;7.85;6.53;;;;;;;;;;4936051;29;20478;-54
2024/01/30 04:16:22;;;;;;;7.65;6.93;;;;;;;;;;4927411;29;20067;-59
2024/01/30 04:18:47;;;;;;;9.18;6.40;;;;;;;;;;4938434;29;20028;-58
2024/01/30 04:21:13;;;;;;;9.50;7.70;;;;;;;;;;4938562;29;20019;-58
2024/01/30 04:23:40;;;;;;;6.72;5.80;;;;;;;;;;4937472;29;20039;-58
2024/01/30 04:26:05;;;;;;;9.30;6.03;;;;;;;;;;4934216;29;20039;-58
2024/01/30 04:28:31;;;;;;;9.57;6.82;;;;;;;;;;4938324;29;20034;-59
2024/01/30 04:30:57;;;;;;;8.77;7.07;;;;;;;;;;4937500;29;20048;-59
2024/01/30 04:33:22;;;;;;;8.23;5.25;;;;;;;;;;4935170;29;20074;-59
2024/01/30 04:35:47;;;;;;;8.30;7.20;;;;;;;;;;4937493;29;20036;-59
2024/01/30 04:38:14;;;;;;;9.38;6.70;;;;;;;;;;4938400;29;20031;-58
2024/01/30 04:40:40;;;;;;;6.72;4.90;;;;;;;;;;4938398;29;20043;-59
2024/01/30 04:43:05;;;;;;;6.63;5.93;;;;;;;;;;4934770;29;20467;-59
2024/01/30 04:45:31;;;;;;;9.98;5.93;;;;;;;;;;4937220;29;20040;-59
2024/01/30 04:47:56;;;;;;;6.68;5.88;;;;;;;;;;4936273;29;20031;-59
2024/01/30 04:50:22;;;;;;;8.93;6.05;;;;;;;;;;4938305;29;20044;-59
2024/01/30 04:52:47;;;;;;;5.95;4.80;;;;;;;;;;4936843;29;20028;-59
2024/01/30 04:55:12;;;;;;;6.55;5.07;;;;;;;;;;4934741;29;20156;-58
2024/01/30 04:57:38;;;;;;;7.07;5.53;;;;;;;;;;4939306;29;20035;-59
2024/01/30 05:00:05;;;;;;;8.23;5.82;;;;;;;;;;4937977;29;20028;-59
2024/01/30 05:02:30;;;;;;;7.32;5.97;;;;;;;;;;4934621;29;20024;-59
2024/01/30 05:04:56;;;;;;;6.35;4.85;;;;;;;;;;4938303;29;20059;-56
2024/01/30 05:07:21;;;;;;;7.20;5.60;;;;;;;;;;4938173;29;20019;-59
2024/01/30 05:09:47;;;;;;;7.03;6.22;;;;;;;;;;4934643;29;20216;-59
2024/01/30 05:12:12;;;;;;;7.18;5.97;;;;;;;;;;4932859;29;20035;-59
2024/01/30 05:14:38;;;;;;;8.05;5.97;;;;;;;;;;4935565;29;20406;-59
2024/01/30 05:17:03;;;;;;;7.68;5.43;;;;;;;;;;4935539;29;20711;-59
2024/01/30 05:19:29;;;;;;;6.78;5.57;;;;;;;;;;4937128;29;20051;-58
2024/01/30 05:21:54;;;;;;;9.68;5.65;;;;;;;;;;4936662;29;20042;-58
2024/01/30 05:24:19;;;;;;;5.88;4.95;;;;;;;;;;4933226;29;20511;-58
2024/01/30 05:26:45;;;;;;;7.32;5.65;;;;;;;;;;4936875;29;20023;-58
2024/01/30 05:29:10;;;;;;;5.95;5.30;;;;;;;;;;4936135;29;20052;-56
2024/01/30 05:31:36;;;;;;;6.30;4.38;;;;;;;;;;4935882;29;20031;-59
2024/01/30 05:34:01;;;;;;;6.78;4.32;;;;;;;;;;4935340;29;20421;-59
2024/01/30 05:36:27;;;;;;;7.40;5.10;;;;;;;;;;4935076;29;21419;-56
2024/01/30 05:38:52;;;;;;;6.15;5.20;;;;;;;;;;4935642;29;20024;-57
2024/01/30 05:41:18;;;;;;;7.03;4.25;;;;;;;;;;4939518;29;20038;-59
2024/01/30 05:43:44;;;;;;;5.40;4.07;;;;;;;;;;4940829;29;20031;-57
2024/01/30 05:46:09;;;;;;;6.63;4.97;;;;;;;;;;4934880;29;20126;-58
2024/01/30 05:48:35;;;;;;;5.82;4.60;;;;;;;;;;4934225;29;20030;-59
2024/01/30 05:51:01;;;;;;;6.57;5.00;;;;;;;;;;4935469;29;20098;-57
2024/01/30 05:53:27;;;;;;;6.60;4.53;;;;;;;;;;4937311;29;20074;-59
2024/01/30 05:55:52;;;;;;;7.13;4.60;;;;;;;;;;4936569;29;20087;-59
2024/01/30 05:58:17;;;;;;;5.60;4.47;;;;;;;;;;4932724;29;20161;-58
2024/01/30 06:00:43;;;;;;;5.55;4.68;;;;;;;;;;4933702;29;20032;-59
2024/01/30 06:03:08;;;;;;;7.25;4.88;;;;;;;;;;4937881;29;20580;-58
2024/01/30 06:05:34;;;;;;;8.25;5.32;;;;;;;;;;4936461;28;20040;-58
2024/01/30 06:07:59;;;;;;;5.72;4.25;;;;;;;;;;4931563;29;20087;-58
2024/01/30 06:10:24;;;;;;;8.18;4.90;;;;;;;;;;4931890;29;20035;-59
2024/01/30 06:12:50;;;;;;;5.25;4.18;;;;;;;;;;4936322;29;20123;-58
2024/01/30 06:15:15;;;;;;;8.65;5.50;;;;;;;;;;4930956;29;20054;-58
2024/01/30 06:17:41;;;;;;;6.28;4.38;;;;;;;;;;4938180;29;20031;-57
2024/01/30 06:20:06;;;;;;;8.32;6.30;;;;;;;;;;4937456;29;20063;-57
2024/01/30 06:22:32;;;;;;;6.88;6.18;;;;;;;;;;4933633;29;20028;-59
2024/01/30 06:24:58;;;;;;;5.50;5.00;;;;;;;;;;4934428;29;20151;-57
2024/01/30 06:27:23;;;;;;;5.47;4.50;;;;;;;;;;4937674;29;20126;-58
2024/01/30 06:29:48;;;;;;;4.95;4.47;;;;;;;;;;4937999;29;20047;-60
2024/01/30 06:32:14;;;;;;;5.68;4.80;;;;;;;;;;4938890;29;20060;-54
2024/01/30 06:34:40;;;;;;;6.88;4.95;;;;;;;;;;4939377;29;20398;-59
2024/01/30 06:37:06;;;;;;;5.88;3.78;;;;;;;;;;4940465;28;20039;-59
2024/01/30 06:39:31;;;;;;;5.80;4.28;;;;;;;;;;4934802;28;20090;-59
2024/01/30 06:41:57;;;;;;;6.28;4.63;;;;;;;;;;4934286;29;20336;-58
2024/01/30 06:44:22;;;;;;;6.40;4.70;;;;;;;;;;4938461;29;20514;-59
2024/01/30 06:46:48;;;;;;;7.82;6.18;;;;;;;;;;4936580;29;20110;-58
2024/01/30 06:49:13;;;;;;;10.25;5.25;;;;;;;;;;4936142;29;20406;-59
2024/01/30 06:51:39;;;;;;;7.28;5.20;;;;;;;;;;4935185;29;20541;-58
2024/01/30 06:54:04;;;;;;;5.40;4.13;;;;;;;;;;4933303;29;20035;-59
2024/01/30 06:56:30;;;;;;;4.93;4.20;;;;;;;;;;4932884;29;20114;-59
2024/01/30 06:58:55;;;;;;;5.22;4.38;;;;;;;;;;4937498;28;20062;-57
2024/01/30 07:01:27;;;;;;;7.03;4.72;;;;;;;;;;4937653;29;20418;-57
2024/01/30 07:03:52;;;;;;;5.97;4.88;;;;;;;;;;4938774;29;20035;-58
2024/01/30 07:06:17;;;;;;;6.95;5.22;;;;;;;;;;4936963;29;20038;-57
2024/01/30 07:08:43;;;;;;;6.57;4.93;;;;;;;;;;4932854;29;20367;-60
2024/01/30 07:11:08;;;;;;;5.22;4.65;;;;;;;;;;4929308;29;20039;-58
2024/01/30 07:13:34;;;;;;;5.97;4.55;;;;;;;;;;4938071;29;20031;-59
2024/01/30 07:15:59;;;;;;;5.75;4.72;;;;;;;;;;4932084;29;20060;-59
2024/01/30 07:18:25;;;;;;;5.22;3.92;;;;;;;;;;4933019;29;20040;-59
2024/01/30 07:20:50;;;;;;;5.13;4.63;;;;;;;;;;4935396;29;20410;-58
2024/01/30 07:23:17;;;;;;;5.10;4.43;;;;;;;;;;4936113;29;20040;-59
2024/01/30 07:25:44;;;;;;;7.35;4.68;;;;;;;;;;4935186;29;20036;-59
2024/01/30 07:28:10;;;;;;;5.35;4.25;;;;;;;;;;4932384;29;20052;-59
2024/01/30 07:30:36;;;;;;;5.53;3.95;;;;;;;;;;4933901;29;20036;-59
2024/01/30 07:33:02;;;;;;;6.47;4.10;;;;;;;;;;4933570;29;20026;-58
2024/01/30 07:35:27;;;;;;;6.00;5.13;;;;;;;;;;4930563;29;20562;-57
2024/01/30 07:37:53;;;;;;;5.65;3.58;;;;;;;;;;4936840;29;20118;-59
2024/01/30 07:40:18;;;;;;;6.40;4.38;;;;;;;;;;4934043;29;20036;-58
2024/01/30 07:42:44;;;;;;;5.10;4.65;;;;;;;;;;4937156;29;20031;-59
2024/01/30 07:45:09;;;;;;;4.68;4.28;;;;;;;;;;4935282;29;20055;-58
2024/01/30 07:47:35;;;;;;;5.75;4.40;;;;;;;;;;4938404;29;20032;-59
2024/01/30 07:50:00;;;;;;;6.57;4.97;;;;;;;;;;4939040;29;20039;-56
2024/01/30 07:52:25;;;;;;;5.88;3.90;;;;;;;;;;4937401;29;20046;-58
2024/01/30 07:54:51;;;;;;;5.65;4.15;;;;;;;;;;4937090;29;20063;-59
2024/01/30 07:57:17;;;;;;;5.95;4.70;;;;;;;;;;4940557;29;20047;-57
2024/01/30 07:59:46;;;;;;;6.60;5.22;;;;;;;;;;4940615;28;20052;-56
2024/01/30 08:02:12;;;;;;;6.07;4.35;;;;;;;;;;4935546;29;20059;-60
2024/01/30 08:04:38;;;;;;;6.55;6.05;;;;;;;;;;4939421;29;20033;-59
2024/01/30 08:07:04;;;;;;;6.45;5.85;;;;;;;;;;4938497;29;20039;-59
2024/01/30 08:09:30;;;;;;;4.82;4.32;;;;;;;;;;4938680;29;20102;-58
2024/01/30 08:11:55;;;;;;;6.13;4.38;;;;;;;;;;4937119;29;20032;-59
2024/01/30 08:14:20;;;;;;;6.25;4.18;;;;;;;;;;4933521;29;20043;-59
2024/01/30 08:16:46;;;;;;;5.93;4.97;;;;;;;;;;4937553;29;20520;-59
2024/01/30 08:19:11;;;;;;;5.22;3.72;;;;;;;;;;4936934;29;20663;-58
2024/01/30 08:21:37;;;;;;;5.25;4.07;;;;;;;;;;4939704;29;20038;-59
2024/01/30 08:24:06;;;;;;;5.57;4.22;;;;;;;;;;4938189;29;20046;-59
2024/01/30 08:26:32;;;;;;;6.35;4.30;;;;;;;;;;4939414;29;20031;-59
2024/01/30 08:28:57;;;;;;;5.38;4.88;;;;;;;;;;4936718;29;20437;-57
2024/01/30 08:31:23;;;;;;;5.60;4.03;;;;;;;;;;4939856;29;20051;-58
2024/01/30 08:33:48;;;;;;;5.97;4.90;;;;;;;;;;4938717;29;20031;-59
2024/01/30 08:36:14;;;;;;;5.78;4.13;;;;;;;;;;4937377;29;20050;-58
2024/01/30 08:38:39;;;;;;;6.60;4.13;;;;;;;;;;4931177;29;20411;-58
2024/01/30 08:41:05;;;;;;;5.88;4.45;;;;;;;;;;4936329;29;20087;-58
2024/01/30 08:43:30;;;;;;;6.35;4.18;;;;;;;;;;4936913;29;20062;-58
2024/01/30 08:45:59;;;;;;;5.43;4.93;;;;;;;;;;4939203;29;20036;-59
2024/01/30 08:48:25;;;;;;;5.68;3.88;;;;;;;;;;4937327;29;20055;-59
2024/01/30 08:50:50;;;;;;;5.55;4.65;;;;;;;;;;4935492;29;20059;-59
2024/01/30 08:53:16;;;;;;;4.97;4.15;;;;;;;;;;4939217;29;20027;-58
2024/01/30 08:55:41;;;;;;;5.93;4.43;;;;;;;;;;4939244;29;20059;-58
2024/01/30 08:58:06;;;;;;;5.30;3.88;;;;;;;;;;4935931;29;20031;-59
2024/01/30 09:00:32;;;;;;;4.85;3.78;;;;;;;;;;4938830;29;20466;-59
2024/01/30 09:02:57;;;;;;;6.03;3.92;;;;;;;;;;4932568;29;20828;-60
2024/01/30 09:05:22;;;;;;;5.93;5.07;;;;;;;;;;4936927;29;20122;-58
2024/01/30 09:07:48;;;;;;;7.65;4.53;;;;;;;;;;4935251;29;20036;-58
2024/01/30 09:10:13;;;;;;;6.30;4.72;;;;;;;;;;4933500;29;20087;-59
2024/01/30 09:12:39;;;;;;;5.57;4.22;;;;;;;;;;4938884;29;20027;-58
2024/01/30 09:15:05;;;;;;;5.60;3.60;;;;;;;;;;4934476;29;20046;-59
2024/01/30 09:17:30;;;;;;;5.13;4.50;;;;;;;;;;4933677;29;20506;-59
2024/01/30 09:19:56;;;;;;;6.38;4.22;;;;;;;;;;4936438;29;20031;-57
2024/01/30 09:22:21;;;;;;;6.18;3.22;;;;;;;;;;4938433;29;20382;-60
2024/01/30 09:24:46;;;;;;;8.05;4.78;;;;;;;;;;4937588;29;20406;-59
2024/01/30 09:27:12;;;;;;;4.95;3.67;;;;;;;;;;4937423;29;20035;-56
2024/01/30 09:29:37;;;;;;;4.53;3.45;;;;;;;;;;4938346;29;20114;-55
2024/01/30 09:32:04;;;;;;;6.75;3.63;;;;;;;;;;4932750;29;20626;-59
2024/01/30 09:34:30;;;;;;;4.88;3.50;;;;;;;;;;4938607;29;20039;-56
2024/01/30 09:36:55;;;;;;;6.47;4.20;;;;;;;;;;4935771;29;20163;-60
2024/01/30 09:39:20;;;;;;;8.82;5.45;;;;;;;;;;4936753;29;20051;-60
2024/01/30 09:41:58;;;;;;;10.45;7.75;;;;;;;;;;4930846;29;20024;-60
2024/01/30 09:44:25;;;;;;;11.40;7.93;;;;;;;;;;4931532;28;20039;-58
2024/01/30 09:46:51;;;;;;;12.90;9.10;;;;;;;;;;4947921;29;20372;-59
2024/01/30 09:49:18;;;;;;;9.15;6.40;;;;;;;;;;4934178;29;20047;-59
2024/01/30 09:51:45;;;;;;;5.07;4.57;;;;;;;;;;4936323;29;20046;-60
2024/01/30 09:54:14;;;;;;;5.15;4.20;;;;;;;;;;4932850;29;20082;-60
2024/01/30 09:56:39;;;;;;;7.45;4.80;;;;;;;;;;4933127;29;20034;-61
2024/01/30 09:59:05;;;;;;;5.28;3.85;;;;;;;;;;4939369;29;20068;-60
2024/01/30 10:01:31;;;;;;;6.65;4.22;;;;;;;;;;4935919;29;20043;-59
2024/01/30 10:03:56;;;;;;;4.70;3.30;;;;;;;;;;4932654;29;20115;-59
2024/01/30 10:06:24;;;;;;;5.75;3.90;;;;;;;;;;4937677;29;20055;-60
2024/01/30 10:08:50;;;;;;;6.13;5.60;;;;;;;;;;4933425;29;20031;-60
2024/01/30 10:11:15;;;;;;;4.28;3.17;;;;;;;;;;4931601;29;20082;-60
2024/01/30 10:13:41;;;;;;;3.70;3.13;;;;;;;;;;4935093;29;20036;-60
2024/01/30 10:16:06;;;;;;;3.85;3.30;;;;;;;;;;4933980;29;20086;-59
2024/01/30 10:18:32;;;;;;;7.40;3.70;;;;;;;;;;4933601;29;20032;-60
2024/01/30 10:20:58;;;;;;;5.32;2.95;;;;;;;;;;4931326;29;20051;-59
2024/01/30 10:23:24;;;;;;;5.20;3.55;;;;;;;;;;4933296;29;20051;-60
2024/01/30 10:25:51;;;;;;;5.07;3.22;;;;;;;;;;4932306;29;20047;-60
2024/01/30 10:28:17;;;;;;;4.82;3.30;;;;;;;;;;4937399;29;20086;-59
2024/01/30 10:30:42;;;;;;;4.88;3.72;;;;;;;;;;4932840;29;20040;-60
2024/01/30 10:33:08;;;;;;;5.07;3.42;;;;;;;;;;4938190;29;20030;-60
2024/01/30 10:35:33;;;;;;;3.78;3.25;;;;;;;;;;4935465;29;20034;-60
2024/01/30 10:37:59;;;;;;;5.03;3.58;;;;;;;;;;4936209;29;20031;-60
2024/01/30 10:40:28;;;;;;;4.15;2.90;;;;;;;;;;4932531;29;20071;-60
2024/01/30 10:42:55;;;;;;;4.35;2.90;;;;;;;;;;4936579;29;20036;-60
2024/01/30 10:45:22;;;;;;;4.28;3.45;;;;;;;;;;4936684;29;20036;-60
2024/01/30 10:47:54;;;;;;;4.53;3.25;;;;;;;;;;4937789;29;20051;-60
2024/01/30 10:50:20;;;;;;;8.45;4.00;;;;;;;;;;4933827;29;20067;-60
2024/01/30 10:52:47;;;;;;;6.15;3.70;;;;;;;;;;4933829;29;21000;-60
2024/01/30 10:55:14;;;;;;;4.93;3.95;;;;;;;;;;4934347;29;20040;-60
2024/01/30 10:57:40;;;;;;;6.47;4.18;;;;;;;;;;4933748;29;20042;-60
2024/01/30 11:00:11;;;;;;;4.43;3.63;;;;;;;;;;4936049;29;20490;-60
2024/01/30 11:02:46;;;;;;;5.40;4.00;;;;;;;;;;4929822;29;20040;-60
2024/01/30 11:05:12;;;;;;;5.35;4.07;;;;;;;;;;4931582;29;20043;-60
2024/01/30 11:07:43;;;;;;;5.68;4.28;;;;;;;;;;4935703;29;20115;-60
2024/01/30 11:10:09;;;;;;;5.35;3.92;;;;;;;;;;4934696;29;20043;-60
2024/01/30 11:12:40;;;;;;;6.07;4.53;;;;;;;;;;4934292;29;20019;-60
2024/01/30 11:15:08;;;;;;;6.47;4.07;;;;;;;;;;4933141;29;20118;-59
2024/01/30 11:17:49;;;;;;;6.35;5.60;;;;;;;;;;4935473;29;20032;-60
2024/01/30 11:20:35;;;;;;;4.95;3.95;;;;;;;;;;4932607;29;20071;-60
2024/01/30 11:23:05;;;;;;;6.63;4.85;;;;;;;;;;4940215;29;20446;-60
2024/01/30 11:25:32;;;;;;;9.73;4.10;;;;;;;;;;4936118;29;20042;-60
2024/01/30 11:27:57;;;;;;;4.78;4.10;;;;;;;;;;4937508;29;20118;-60
2024/01/30 11:30:32;;;;;;;4.57;3.63;;;;;;;;;;4936814;29;20032;-61
2024/01/30 11:33:11;;;;;;;4.90;4.15;;;;;;;;;;4939058;29;20039;-60
2024/01/30 11:35:41;;;;;;;7.07;5.35;;;;;;;;;;4939752;29;20046;-59
2024/01/30 11:38:08;;;;;;;6.03;4.65;;;;;;;;;;4938676;29;20152;-60
2024/01/30 11:40:37;;;;;;;5.88;3.78;;;;;;;;;;4937408;29;20032;-60
2024/01/30 11:43:04;;;;;;;4.82;4.32;;;;;;;;;;4941241;29;20019;-60
2024/01/30 11:45:31;;;;;;;6.82;4.57;;;;;;;;;;4939030;29;20036;-60
2024/01/30 11:47:57;;;;;;;4.72;3.85;;;;;;;;;;4940926;29;20114;-58
2024/01/30 11:50:24;;;;;;;4.60;3.70;;;;;;;;;;4933793;29;20052;-60
2024/01/30 11:52:50;;;;;;;7.15;4.47;;;;;;;;;;4939289;29;20407;-59
2024/01/30 11:55:15;;;;;;;4.75;4.32;;;;;;;;;;4938118;29;20087;-60
2024/01/30 11:57:41;;;;;;;5.63;4.05;;;;;;;;;;4939805;29;20032;-61
2024/01/30 12:00:15;;;;;;;7.93;4.38;;;;;;;;;;4938694;29;20490;-59
2024/01/30 12:02:41;;;;;;;5.80;4.18;;;;;;;;;;4939743;29;20044;-60
2024/01/30 12:05:07;;;;;;;4.90;4.05;;;;;;;;;;4935625;29;20040;-61
2024/01/30 12:07:33;;;;;;;5.90;4.30;;;;;;;;;;4930689;29;20028;-60
2024/01/30 12:09:59;;;;;;;4.70;4.25;;;;;;;;;;4939439;29;20047;-60
2024/01/30 12:12:26;;;;;;;4.18;3.78;;;;;;;;;;4935530;29;20035;-59
2024/01/30 12:14:51;;;;;;;3.33;2.50;;;;;;;;;;4939817;29;20032;-60
2024/01/30 12:17:43;;;;;;;5.95;3.33;;;;;;;;;;4939122;29;20102;-59
2024/01/30 12:20:11;;;;;;;4.65;3.17;;;;;;;;;;4935213;29;20462;-61
2024/01/30 12:22:43;;;;;;;3.97;3.00;;;;;;;;;;4934443;29;20036;-60
2024/01/30 12:25:10;;;;;;;6.05;3.53;;;;;;;;;;4932559;29;20046;-61
2024/01/30 12:27:36;;;;;;;5.47;4.45;;;;;;;;;;4935811;29;20032;-61
2024/01/30 12:30:06;;;;;;;4.28;3.67;;;;;;;;;;4938949;29;20040;-61
2024/01/30 12:32:35;;;;;;;5.70;4.38;;;;;;;;;;4936213;29;20027;-60
2024/01/30 12:35:00;;;;;;;6.22;3.95;;;;;;;;;;4938007;29;20044;-60
2024/01/30 12:37:25;;;;;;;5.30;4.80;;;;;;;;;;4929719;29;20051;-61
2024/01/30 12:39:53;;;;;;;5.47;4.50;;;;;;;;;;4938844;29;20044;-59
2024/01/30 12:42:20;;;;;;;4.25;3.88;;;;;;;;;;4935871;29;20051;-59
2024/01/30 12:44:46;;;;;;;6.53;4.55;;;;;;;;;;4934985;29;20044;-60
2024/01/30 12:47:12;;;;;;;5.80;4.20;;;;;;;;;;4938444;29;20030;-60
2024/01/30 12:49:37;;;;;;;7.38;5.22;;;;;;;;;;4937274;29;20069;-60
2024/01/30 12:52:03;;;;;;;6.00;4.43;;;;;;;;;;4928524;29;20032;-60
2024/01/30 12:54:28;;;;;;;4.55;3.95;;;;;;;;;;4933538;29;20083;-60
2024/01/30 12:56:54;;;;;;;5.90;3.95;;;;;;;;;;4932573;29;20115;-60
2024/01/30 12:59:19;;;;;;;4.97;3.83;;;;;;;;;;4937906;29;20048;-60
2024/01/30 13:01:44;;;;;;;3.83;3.38;;;;;;;;;;4937710;29;20027;-60
2024/01/30 13:04:11;;;;;;;5.70;4.28;;;;;;;;;;4938692;28;20051;-60
2024/01/30 13:06:36;;;;;;;5.25;3.03;;;;;;;;;;4929820;29;20016;-60
2024/01/30 13:09:02;;;;;;;5.78;3.42;;;;;;;;;;4933367;29;20027;-60
2024/01/30 13:11:27;;;;;;;6.53;3.70;;;;;;;;;;4937917;29;20086;-60
2024/01/30 13:13:53;;;;;;;8.20;3.63;;;;;;;;;;4937663;29;20034;-60
2024/01/30 13:16:18;;;;;;;5.68;3.60;;;;;;;;;;4930002;29;20044;-59
2024/01/30 13:18:44;;;;;;;5.30;2.70;;;;;;;;;;4937945;29;20457;-60
2024/01/30 13:21:09;;;;;;;5.15;3.78;;;;;;;;;;4935922;29;21119;-61
2024/01/30 13:23:35;;;;;;;6.55;3.33;;;;;;;;;;4936143;29;20107;-60
2024/01/30 13:26:00;;;;;;;4.20;3.15;;;;;;;;;;4938191;29;20035;-61
2024/01/30 13:28:26;;;;;;;4.55;3.10;;;;;;;;;;4937056;29;20078;-60
2024/01/30 13:30:51;;;;;;;4.88;3.05;;;;;;;;;;4938088;29;20040;-60
2024/01/30 13:33:17;;;;;;;4.30;3.47;;;;;;;;;;4938409;29;20482;-61
2024/01/30 13:35:43;;;;;;;3.97;3.20;;;;;;;;;;4936448;29;20047;-60
2024/01/30 13:38:08;;;;;;;4.70;3.80;;;;;;;;;;4930531;29;20035;-60
2024/01/30 13:40:34;;;;;;;5.68;3.60;;;;;;;;;;4935270;29;20027;-60
2024/01/30 13:42:59;;;;;;;5.00;3.47;;;;;;;;;;4936059;29;20517;-60
2024/01/30 13:45:25;;;;;;;5.40;3.90;;;;;;;;;;4925024;29;20048;-60
2024/01/30 13:47:50;;;;;;;6.35;4.30;;;;;;;;;;4938105;29;20038;-61
2024/01/30 13:50:16;;;;;;;6.43;5.25;;;;;;;;;;4936569;29;20498;-60
2024/01/30 13:52:43;;;;;;;3.80;3.45;;;;;;;;;;4936835;29;20114;-61
2024/01/30 13:55:09;;;;;;;7.68;3.97;;;;;;;;;;4937186;29;20054;-60
2024/01/30 13:57:35;;;;;;;6.82;4.00;;;;;;;;;;4936197;29;20027;-60
2024/01/30 14:00:05;;;;;;;5.78;4.15;;;;;;;;;;4937418;29;20040;-59
2024/01/30 14:02:30;;;;;;;6.20;4.13;;;;;;;;;;4937576;29;20067;-61
2024/01/30 14:04:56;;;;;;;4.95;3.30;;;;;;;;;;4935231;29;20090;-60
2024/01/30 14:07:21;;;;;;;4.65;4.25;;;;;;;;;;4937050;29;20027;-60
2024/01/30 14:09:48;;;;;;;8.27;3.30;;;;;;;;;;4932297;29;20042;-61
2024/01/30 14:12:13;;;;;;;4.75;3.70;;;;;;;;;;4934380;29;20031;-60
2024/01/30 14:14:39;;;;;;;4.35;3.38;;;;;;;;;;4935102;29;20043;-60
2024/01/30 14:17:06;;;;;;;4.50;3.28;;;;;;;;;;4938205;29;20059;-57
2024/01/30 14:19:32;;;;;;;7.03;4.13;;;;;;;;;;4935879;29;20038;-60
2024/01/30 14:21:58;;;;;;;5.05;3.30;;;;;;;;;;4937396;29;20429;-61
2024/01/30 14:24:23;;;;;;;5.30;3.90;;;;;;;;;;4936429;29;20039;-60
2024/01/30 14:26:49;;;;;;;5.15;3.63;;;;;;;;;;4935165;29;20039;-60
2024/01/30 14:29:14;;;;;;;4.25;3.47;;;;;;;;;;4936572;29;20086;-60
2024/01/30 14:31:39;;;;;;;4.30;2.78;;;;;;;;;;4934017;29;20027;-60
2024/01/30 14:34:05;;;;;;;4.55;3.38;;;;;;;;;;4936687;29;21079;-60